createdAt,value
2018-04-12T00:01:47.972Z,5.30
2018-04-12T00:04:19.624Z,5.30
2018-04-12T00:06:50.286Z,5.20
2018-04-12T00:09:22.031Z,5.20
2018-04-12T00:11:52.686Z,5.20
2018-04-12T00:14:24.404Z,5.20
2018-04-12T00:16:55.877Z,5.30
2018-04-12T00:19:26.558Z,5.30
2018-04-12T00:21:57.211Z,5.30
2018-04-12T00:24:28.321Z,5.40
2018-04-12T00:26:58.964Z,5.50
2018-04-12T00:29:29.718Z,5.60
2018-04-12T00:32:00.401Z,5.70
2018-04-12T00:34:31.841Z,5.60
2018-04-12T00:37:02.574Z,5.60
2018-04-12T00:39:34.768Z,5.50
2018-04-12T00:42:05.446Z,5.40
2018-04-12T00:44:36.315Z,5.30
2018-04-12T00:47:06.994Z,5.30
2018-04-12T00:49:37.831Z,5.40
2018-04-12T00:52:08.510Z,5.50
2018-04-12T00:54:40.353Z,5.70
2018-04-12T00:57:11.006Z,5.60
2018-04-12T00:59:41.666Z,5.60
2018-04-12T01:02:12.509Z,5.60
2018-04-12T01:04:43.378Z,5.60
2018-04-12T01:07:14.050Z,5.60
2018-04-12T01:09:45.351Z,5.50
2018-04-12T01:12:16.094Z,5.40
2018-04-12T01:14:47.124Z,5.50
2018-04-12T01:17:18.958Z,5.40
2018-04-12T01:19:49.784Z,5.40
2018-04-12T01:22:21.082Z,5.50
2018-04-12T01:24:52.044Z,5.40
2018-04-12T01:27:22.710Z,5.30
2018-04-12T01:29:53.431Z,5.40
2018-04-12T01:32:24.389Z,5.40
2018-04-12T01:34:55.250Z,5.40
2018-04-12T01:37:25.923Z,5.40
2018-04-12T01:39:56.915Z,5.40
2018-04-12T01:42:28.448Z,5.50
2018-04-12T01:44:59.325Z,5.50
2018-04-12T01:48:50.080Z,5.80
2018-04-12T01:51:20.757Z,5.80
2018-04-12T01:53:51.878Z,5.90
2018-04-12T01:56:23.569Z,6.10
2018-04-12T01:58:55.017Z,6.20
2018-04-12T02:01:26.488Z,6.20
2018-04-12T02:03:57.489Z,6.10
2018-04-12T02:06:28.352Z,6.20
2018-04-12T02:08:59.091Z,6.20
2018-04-12T02:11:30.164Z,6.20
2018-04-12T02:14:01.002Z,6.20
2018-04-12T02:16:31.796Z,6.10
2018-04-12T02:19:02.943Z,6.00
2018-04-12T02:21:33.808Z,6.00
2018-04-12T02:24:04.555Z,6.00
2018-04-12T02:26:35.273Z,6.00
2018-04-12T02:29:05.990Z,6.10
2018-04-12T02:31:36.955Z,6.00
2018-04-12T02:34:07.659Z,6.00
2018-04-12T02:36:38.835Z,6.00
2018-04-12T02:39:10.830Z,5.90
2018-04-12T02:41:42.589Z,5.70
2018-04-12T02:44:14.093Z,5.70
2018-04-12T02:46:45.055Z,5.70
2018-04-12T02:49:16.062Z,5.70
2018-04-12T02:51:46.917Z,5.60
2018-04-12T02:54:17.654Z,5.60
2018-04-12T02:56:48.664Z,5.70
2018-04-12T02:59:19.355Z,5.60
2018-04-12T03:01:51.145Z,5.70
2018-04-12T03:04:21.799Z,5.60
2018-04-12T03:06:53.371Z,5.70
2018-04-12T03:09:25.132Z,5.60
2018-04-12T03:11:56.279Z,5.60
2018-04-12T03:14:27.726Z,5.60
2018-04-12T03:16:58.415Z,5.60
2018-04-12T03:19:29.500Z,5.50
2018-04-12T03:22:00.258Z,5.50
2018-04-12T03:24:30.965Z,5.40
2018-04-12T03:27:01.962Z,5.40
2018-04-12T03:29:32.763Z,5.40
2018-04-12T03:32:05.873Z,5.20
2018-04-12T03:34:36.648Z,5.30
2018-04-12T03:37:07.469Z,5.30
2018-04-12T03:39:38.628Z,5.30
2018-04-12T03:42:09.332Z,5.30
2018-04-12T03:44:40.066Z,5.30
2018-04-12T03:47:11.026Z,5.20
2018-04-12T03:49:41.753Z,5.20
2018-04-12T03:52:12.947Z,5.10
2018-04-12T03:54:43.726Z,5.20
2018-04-12T03:57:14.725Z,5.20
2018-04-12T03:59:45.566Z,5.20
2018-04-12T04:02:16.485Z,5.20
2018-04-12T04:04:48.426Z,5.20
2018-04-12T04:07:19.596Z,5.20
2018-04-12T04:09:50.288Z,5.20
2018-04-12T04:12:21.760Z,5.20
2018-04-12T04:15:01.009Z,5.20
2018-04-12T04:21:43.974Z,5.20
2018-04-12T04:24:14.807Z,5.20
2018-04-12T04:26:45.635Z,5.20
2018-04-12T04:29:16.824Z,5.20
2018-04-12T04:31:47.816Z,5.20
2018-04-12T04:34:18.492Z,5.20
2018-04-12T04:36:49.186Z,5.30
2018-04-12T04:39:19.890Z,5.20
2018-04-12T04:41:50.769Z,5.30
2018-04-12T04:44:21.740Z,5.30
2018-04-12T04:46:52.721Z,5.30
2018-04-12T04:49:24.170Z,5.50
2018-04-12T04:51:55.224Z,5.40
2018-04-12T04:54:25.947Z,5.40
2018-04-12T04:56:56.784Z,5.50
2018-04-12T04:59:27.520Z,5.50
2018-04-12T05:01:59.285Z,5.50
2018-04-12T05:04:30.409Z,5.60
2018-04-12T05:07:01.254Z,5.90
2018-04-12T05:09:35.776Z,6.10
2018-04-12T05:12:09.605Z,6.20
2018-04-12T05:14:40.613Z,6.30
2018-04-12T05:17:11.534Z,6.30
2018-04-12T05:19:42.669Z,6.50
2018-04-12T05:22:14.572Z,6.50
2018-04-12T05:24:45.614Z,6.50
2018-04-12T05:27:16.710Z,6.60
2018-04-12T05:29:48.257Z,6.50
2018-04-12T05:32:23.132Z,6.40
2018-04-12T05:34:54.664Z,6.40
2018-04-12T05:37:26.487Z,6.40
2018-04-12T05:39:58.039Z,6.40
2018-04-12T05:42:32.081Z,6.40
2018-04-12T05:45:05.212Z,6.40
2018-04-12T05:47:37.176Z,6.50
2018-04-12T05:50:07.969Z,6.60
2018-04-12T05:52:40.651Z,6.70
2018-04-12T05:55:11.506Z,6.70
2018-04-12T05:57:48.602Z,6.90
2018-04-12T06:00:21.889Z,7.00
2018-04-12T06:02:56.948Z,7.00
2018-04-12T06:05:29.698Z,7.10
2018-04-12T06:08:00.780Z,7.10
2018-04-12T06:10:31.513Z,7.20
2018-04-12T06:13:03.023Z,7.40
2018-04-12T06:15:37.532Z,7.60
2018-04-12T06:18:09.395Z,7.60
2018-04-12T06:20:40.584Z,7.70
2018-04-12T06:23:12.449Z,7.80
2018-04-12T06:25:43.580Z,7.80
2018-04-12T06:28:16.556Z,8.00
2018-04-12T06:30:47.938Z,8.10
2018-04-12T06:33:22.974Z,8.20
2018-04-12T06:35:54.324Z,8.20
2018-04-12T06:38:28.346Z,8.20
2018-04-12T06:41:09.151Z,8.20
2018-04-12T06:43:42.722Z,8.30
2018-04-12T06:46:13.780Z,8.30
2018-04-12T06:48:45.834Z,8.40
2018-04-12T06:51:18.493Z,8.70
2018-04-12T06:53:49.673Z,8.90
2018-04-12T06:56:22.541Z,8.80
2018-04-12T06:58:54.112Z,8.80
2018-04-12T07:01:30.512Z,8.80
2018-04-12T07:04:10.864Z,8.90
2018-04-12T07:06:41.640Z,9.10
2018-04-12T07:09:13.365Z,9.40
2018-04-12T07:11:44.128Z,9.30
2018-04-12T07:14:15.336Z,9.50
2018-04-12T07:16:46.051Z,9.50
2018-04-12T07:19:16.852Z,9.50
2018-04-12T07:21:47.675Z,9.40
2018-04-12T07:24:18.742Z,9.60
2018-04-12T07:26:50.861Z,9.50
2018-04-12T07:29:21.660Z,9.50
2018-04-12T07:31:52.487Z,9.70
2018-04-12T07:34:24.644Z,9.80
2018-04-12T07:36:56.459Z,9.90
2018-04-12T07:39:27.261Z,9.90
2018-04-12T07:41:58.177Z,9.90
2018-04-12T07:44:29.989Z,10.10
2018-04-12T07:47:01.061Z,10.00
2018-04-12T07:49:31.997Z,10.00
2018-04-12T07:52:02.729Z,10.10
2018-04-12T07:54:34.276Z,10.30
2018-04-12T07:57:05.352Z,10.40
2018-04-12T07:59:37.056Z,10.70
2018-04-12T08:02:08.396Z,10.70
2018-04-12T08:04:39.941Z,11.10
2018-04-12T08:07:10.889Z,11.00
2018-04-12T08:09:41.780Z,11.30
2018-04-12T08:12:13.388Z,11.20
2018-04-12T08:14:49.226Z,11.10
2018-04-12T08:17:20.265Z,11.20
2018-04-12T08:19:51.225Z,11.20
2018-04-12T08:22:22.889Z,11.20
2018-04-12T08:24:53.646Z,11.50
2018-04-12T08:27:25.216Z,11.40
2018-04-12T08:29:57.182Z,11.60
2018-04-12T08:32:27.911Z,11.60
2018-04-12T08:34:58.739Z,11.80
2018-04-12T08:37:29.501Z,11.80
2018-04-12T08:40:00.221Z,11.80
2018-04-12T08:42:30.959Z,11.80
2018-04-12T08:45:01.988Z,11.90
2018-04-12T08:47:33.814Z,11.80
2018-04-12T08:50:05.529Z,11.80
2018-04-12T08:52:36.283Z,11.80
2018-04-12T08:55:07.324Z,11.80
2018-04-12T08:57:38.052Z,12.10
2018-04-12T09:00:09.141Z,12.20
2018-04-12T09:02:39.901Z,12.40
2018-04-12T09:05:11.379Z,12.50
2018-04-12T09:07:42.386Z,12.40
2018-04-12T09:10:13.239Z,12.50
2018-04-12T09:12:44.146Z,12.60
2018-04-12T09:15:15.291Z,12.70
2018-04-12T09:17:46.104Z,12.90
2018-04-12T09:20:17.695Z,12.80
2018-04-12T09:22:48.474Z,12.80
2018-04-12T09:25:19.202Z,12.60
2018-04-12T09:27:50.309Z,12.70
2018-04-12T09:30:21.167Z,12.90
2018-04-12T09:32:51.881Z,13.20
2018-04-12T09:35:22.604Z,13.50
2018-04-12T09:37:53.314Z,13.50
2018-04-12T09:40:25.090Z,13.90
2018-04-12T09:42:55.833Z,13.80
2018-04-12T09:45:26.930Z,13.60
2018-04-12T09:47:57.975Z,13.70
2018-04-12T09:50:29.836Z,14.10
2018-04-12T09:53:01.298Z,14.20
2018-04-12T09:55:34.695Z,14.40
2018-04-12T09:58:05.585Z,14.40
2018-04-12T10:00:36.590Z,14.60
2018-04-12T10:03:11.416Z,14.60
2018-04-12T10:05:46.351Z,14.70
2018-04-12T10:08:21.099Z,14.90
2018-04-12T10:10:52.233Z,14.90
2018-04-12T10:13:23.246Z,14.90
2018-04-12T10:15:55.309Z,14.80
2018-04-12T10:18:26.797Z,14.80
2018-04-12T10:20:57.976Z,14.80
2018-04-12T10:23:28.739Z,14.70
2018-04-12T10:26:00.419Z,14.50
2018-04-12T10:28:31.462Z,14.50
2018-04-12T10:31:02.467Z,14.70
2018-04-12T10:33:33.997Z,14.80
2018-04-12T10:36:05.165Z,14.80
2018-04-12T10:38:36.656Z,15.10
2018-04-12T10:41:07.394Z,15.10
2018-04-12T10:43:38.430Z,15.60
2018-04-12T10:46:09.282Z,16.00
2018-04-12T10:48:40.164Z,16.30
2018-04-12T10:51:12.361Z,15.70
2018-04-12T10:53:43.928Z,15.90
2018-04-12T10:56:14.782Z,15.90
2018-04-12T10:58:46.102Z,15.90
2018-04-12T11:01:17.193Z,16.10
2018-04-12T11:03:47.934Z,16.60
2018-04-12T11:06:19.972Z,16.10
2018-04-12T11:08:51.479Z,16.40
2018-04-12T11:11:22.212Z,16.40
2018-04-12T11:13:53.036Z,16.40
2018-04-12T11:16:24.226Z,16.50
2018-04-12T11:18:54.970Z,16.40
2018-04-12T11:21:25.902Z,16.30
2018-04-12T11:23:56.938Z,16.10
2018-04-12T11:26:28.021Z,16.20
2018-04-12T11:28:58.800Z,16.00
2018-04-12T11:31:29.851Z,16.00
2018-04-12T11:34:00.906Z,16.00
2018-04-12T11:36:32.800Z,15.90
2018-04-12T11:39:03.813Z,15.90
2018-04-12T11:41:34.622Z,16.30
2018-04-12T11:44:05.364Z,16.30
2018-04-12T11:46:36.533Z,16.50
2018-04-12T11:49:08.200Z,17.20
2018-04-12T11:51:38.971Z,17.20
2018-04-12T11:54:10.298Z,17.20
2018-04-12T11:56:41.097Z,17.30
2018-04-12T11:59:21.366Z,17.30
2018-04-12T12:01:59.230Z,17.70
2018-04-12T12:04:29.962Z,17.70
2018-04-12T12:07:01.018Z,17.80
2018-04-12T12:09:32.080Z,17.70
2018-04-12T12:12:03.592Z,16.70
2018-04-12T12:14:35.131Z,16.40
2018-04-12T12:17:06.013Z,16.40
2018-04-12T12:19:36.715Z,16.20
2018-04-12T12:22:08.102Z,16.30
2018-04-12T12:24:39.647Z,15.90
2018-04-12T12:27:10.668Z,15.90
2018-04-12T12:29:41.378Z,16.00
2018-04-12T12:32:12.097Z,15.70
2018-04-12T12:34:42.838Z,15.80
2018-04-12T12:37:13.746Z,16.20
2018-04-12T12:39:45.219Z,16.20
2018-04-12T12:42:16.337Z,16.10
2018-04-12T12:44:47.054Z,16.20
2018-04-12T12:47:18.524Z,16.20
2018-04-12T12:49:49.558Z,16.20
2018-04-12T12:52:20.314Z,15.70
2018-04-12T12:54:51.023Z,15.70
2018-04-12T12:57:23.171Z,15.50
2018-04-12T12:59:54.812Z,15.40
2018-04-12T13:02:26.675Z,15.20
2018-04-12T13:04:58.254Z,14.90
2018-04-12T13:07:29.306Z,14.90
2018-04-12T13:10:00.366Z,15.00
2018-04-12T13:12:31.230Z,15.00
2018-04-12T13:15:02.021Z,15.00
2018-04-12T13:17:33.176Z,15.10
2018-04-12T13:20:03.969Z,15.00
2018-04-12T13:22:34.719Z,15.10
2018-04-12T13:25:06.699Z,15.20
2018-04-12T13:27:37.756Z,15.20
2018-04-12T13:30:08.526Z,15.50
2018-04-12T13:32:40.829Z,15.70
2018-04-12T13:35:12.298Z,16.20
2018-04-12T13:37:44.093Z,16.50
2018-04-12T13:40:14.806Z,16.50
2018-04-12T13:42:46.524Z,17.00
2018-04-12T13:45:18.322Z,17.60
2018-04-12T13:47:49.233Z,17.60
2018-04-12T13:50:19.986Z,17.10
2018-04-12T13:52:51.012Z,17.20
2018-04-12T13:55:21.744Z,17.00
2018-04-12T13:57:52.454Z,17.10
2018-04-12T14:00:23.189Z,17.50
2018-04-12T14:02:54.276Z,17.70
2018-04-12T14:05:25.024Z,17.50
2018-04-12T14:07:56.072Z,17.40
2018-04-12T14:10:26.887Z,17.30
2018-04-12T14:12:57.766Z,17.10
2018-04-12T14:15:29.356Z,16.50
2018-04-12T14:18:00.141Z,16.50
2018-04-12T14:20:30.926Z,16.60
2018-04-12T14:23:01.790Z,16.70
2018-04-12T14:25:32.561Z,16.60
2018-04-12T14:28:03.580Z,16.80
2018-04-12T14:30:34.287Z,16.50
2018-04-12T14:33:05.328Z,16.30
2018-04-12T14:35:36.329Z,16.20
2018-04-12T14:38:07.146Z,16.60
2018-04-12T14:40:38.613Z,18.40
2018-04-12T14:43:10.102Z,19.60
2018-04-12T14:45:40.790Z,19.60
2018-04-12T14:48:12.789Z,21.00
2018-04-12T14:50:43.536Z,20.90
2018-04-12T14:53:14.382Z,21.10
2018-04-12T14:55:45.163Z,21.20
2018-04-12T14:58:16.996Z,20.50
2018-04-12T15:00:48.449Z,20.50
2018-04-12T15:03:20.143Z,20.30
2018-04-12T15:05:51.171Z,20.20
2018-04-12T15:08:21.870Z,20.10
2018-04-12T15:10:52.611Z,19.20
2018-04-12T15:13:23.660Z,19.30
2018-04-12T15:15:55.314Z,20.10
2018-04-12T15:18:26.618Z,20.10
2018-04-12T15:20:57.626Z,20.30
2018-04-12T15:23:28.626Z,20.60
2018-04-12T15:26:00.149Z,21.00
2018-04-12T15:28:31.200Z,21.00
2018-04-12T15:31:02.711Z,21.20
2018-04-12T15:33:33.853Z,21.20
2018-04-12T15:36:05.071Z,20.80
2018-04-12T15:38:35.852Z,21.00
2018-04-12T15:41:06.649Z,20.00
2018-04-12T15:43:37.409Z,19.10
2018-04-12T15:46:08.168Z,18.60
2018-04-12T15:48:39.260Z,18.70
2018-04-12T15:51:09.986Z,18.70
2018-04-12T15:53:40.815Z,18.50
2018-04-12T15:56:12.720Z,18.80
2018-04-12T15:58:43.875Z,18.80
2018-04-12T16:01:14.777Z,18.40
2018-04-12T16:03:46.944Z,19.50
2018-04-12T16:06:17.598Z,19.50
2018-04-12T16:08:48.388Z,18.80
2018-04-12T16:11:20.118Z,17.80
2018-04-12T16:13:50.867Z,17.80
2018-04-12T16:16:21.524Z,17.70
2018-04-12T16:18:53.537Z,17.00
2018-04-12T16:21:25.119Z,16.90
2018-04-12T16:23:56.742Z,16.70
2018-04-12T16:26:27.962Z,16.60
2018-04-12T16:28:59.150Z,16.40
2018-04-12T16:31:30.007Z,16.20
2018-04-12T16:34:02.076Z,16.20
2018-04-12T16:36:33.400Z,16.10
2018-04-12T16:39:04.731Z,16.00
2018-04-12T16:41:35.911Z,16.20
2018-04-12T16:44:07.383Z,15.70
2018-04-12T16:46:38.485Z,15.60
2018-04-12T16:49:09.582Z,15.30
2018-04-12T16:51:40.396Z,15.20
2018-04-12T16:54:11.074Z,15.10
2018-04-12T16:56:41.823Z,15.10
2018-04-12T16:59:13.068Z,15.10
2018-04-12T17:01:44.538Z,15.20
2018-04-12T17:04:16.127Z,15.00
2018-04-12T17:06:46.825Z,14.90
2018-04-12T17:09:18.607Z,14.50
2018-04-12T17:11:49.282Z,14.50
2018-04-12T17:14:20.049Z,14.40
2018-04-12T17:16:52.097Z,14.00
2018-04-12T17:19:23.032Z,14.00
2018-04-12T17:21:53.821Z,13.90
2018-04-12T17:24:24.870Z,13.90
2018-04-12T17:26:55.662Z,13.80
2018-04-12T17:29:26.751Z,13.50
2018-04-12T17:31:57.403Z,13.40
2018-04-12T17:34:28.338Z,13.30
2018-04-12T17:36:59.312Z,13.10
2018-04-12T17:39:30.056Z,13.10
2018-04-12T17:42:01.914Z,13.10
2018-04-12T17:44:33.141Z,12.80
2018-04-12T17:47:03.899Z,12.80
2018-04-12T17:49:35.110Z,12.50
2018-04-12T17:52:05.859Z,12.40
2018-04-12T17:54:37.478Z,12.40
2018-04-12T17:57:08.464Z,12.40
2018-04-12T17:59:40.235Z,12.10
2018-04-12T18:02:10.948Z,12.00
2018-04-12T18:04:42.778Z,11.90
2018-04-12T18:07:13.436Z,11.90
2018-04-12T18:09:45.142Z,11.70
2018-04-12T18:12:16.156Z,11.70
2018-04-12T18:14:47.765Z,11.40
2018-04-12T18:17:18.475Z,11.40
2018-04-12T18:19:49.553Z,11.40
2018-04-12T18:22:20.284Z,11.30
2018-04-12T18:24:51.870Z,11.30
2018-04-12T18:27:23.002Z,11.30
2018-04-12T18:29:54.850Z,11.10
2018-04-12T18:32:26.302Z,11.10
2018-04-12T18:34:57.403Z,11.10
2018-04-12T18:37:28.039Z,11.00
2018-04-12T18:39:59.012Z,11.10
2018-04-12T18:42:31.036Z,11.10
2018-04-12T18:45:01.681Z,11.00
2018-04-12T18:47:32.346Z,11.00
2018-04-12T18:50:04.415Z,11.00
2018-04-12T18:52:35.187Z,10.90
2018-04-12T18:55:06.163Z,11.00
2018-04-12T18:57:38.023Z,11.00
2018-04-12T19:00:10.024Z,11.00
2018-04-12T19:02:40.622Z,11.00
2018-04-12T19:05:12.145Z,10.90
2018-04-12T19:07:42.772Z,10.70
2018-04-12T19:10:13.430Z,10.60
2018-04-12T19:12:44.081Z,10.50
2018-04-12T19:15:14.802Z,10.50
2018-04-12T19:17:45.521Z,10.40
2018-04-12T19:20:16.382Z,10.40
2018-04-12T19:22:48.421Z,10.30
2018-04-12T19:25:19.047Z,10.30
2018-04-12T19:27:49.674Z,10.40
2018-04-12T19:30:20.414Z,10.30
2018-04-12T19:32:51.048Z,10.20
2018-04-12T19:35:22.424Z,10.20
2018-04-12T19:37:53.050Z,10.20
2018-04-12T19:40:24.462Z,10.20
2018-04-12T19:42:56.650Z,10.20
2018-04-12T19:45:28.382Z,10.20
2018-04-12T19:47:59.028Z,10.20
2018-04-12T19:50:30.193Z,10.20
2018-04-12T19:53:01.171Z,10.10
2018-04-12T19:55:32.066Z,10.10
2018-04-12T19:58:05.172Z,10.10
2018-04-12T20:00:36.110Z,10.10
2018-04-12T20:03:06.747Z,10.20
2018-04-12T20:05:37.414Z,10.20
2018-04-12T20:08:08.176Z,10.10
2018-04-12T20:10:39.559Z,10.10
2018-04-12T20:13:10.215Z,10.10
2018-04-12T20:15:41.007Z,10.10
2018-04-12T20:18:12.074Z,10.00
2018-04-12T20:20:42.794Z,10.00
2018-04-12T20:23:13.441Z,10.00
2018-04-12T20:25:44.480Z,10.00
2018-04-12T20:28:15.207Z,10.10
2018-04-12T20:30:46.255Z,10.10
2018-04-12T20:33:16.864Z,10.10
2018-04-12T20:35:48.005Z,10.10
2018-04-12T20:38:19.487Z,10.10
2018-04-12T20:40:50.691Z,10.10
2018-04-12T20:43:21.440Z,10.10
2018-04-12T20:45:52.121Z,10.20
2018-04-12T20:48:23.022Z,10.20
2018-04-12T20:50:53.652Z,10.20
2018-04-12T20:53:24.307Z,10.20
2018-04-12T20:55:55.092Z,10.20
2018-04-12T20:58:26.850Z,10.30
2018-04-12T21:00:58.576Z,10.30
2018-04-12T21:03:29.217Z,10.30
2018-04-12T21:06:00.423Z,10.30
2018-04-12T21:08:31.128Z,10.40
2018-04-12T21:11:02.033Z,10.40
2018-04-12T21:13:33.008Z,10.40
2018-04-12T21:16:03.669Z,10.40
2018-04-12T21:18:34.293Z,10.40
2018-04-12T21:21:05.491Z,10.50
2018-04-12T21:23:36.914Z,10.50
2018-04-12T21:26:07.699Z,10.50
2018-04-12T21:28:38.794Z,10.40
2018-04-12T21:31:09.703Z,10.40
2018-04-12T21:33:40.418Z,10.30
2018-04-12T21:36:11.855Z,10.30
2018-04-12T21:38:42.454Z,10.30
2018-04-12T21:41:13.075Z,10.30
2018-04-12T21:43:44.055Z,10.30
2018-04-12T21:46:14.662Z,10.00
2018-04-12T21:48:45.354Z,10.10
2018-04-12T21:51:16.490Z,10.10
2018-04-12T21:53:47.141Z,10.00
2018-04-12T21:56:17.830Z,9.90
2018-04-12T21:58:48.726Z,10.00
2018-04-12T22:01:19.638Z,9.90
2018-04-12T22:03:50.567Z,10.00
2018-04-12T22:06:21.948Z,9.90
2018-04-12T22:08:52.844Z,9.90
2018-04-12T22:11:24.132Z,9.90
2018-04-12T22:13:55.494Z,9.90
2018-04-12T22:16:27.459Z,9.90
2018-04-12T22:18:59.147Z,9.90
2018-04-12T22:21:30.244Z,9.90
2018-04-12T22:24:01.510Z,9.90
2018-04-12T22:26:33.177Z,9.80
2018-04-12T22:29:04.104Z,9.80
2018-04-12T22:31:36.377Z,9.80
2018-04-12T22:34:07.461Z,9.80
2018-04-12T22:36:38.656Z,9.80
2018-04-12T22:39:11.089Z,9.80
2018-04-12T22:41:42.436Z,9.80
2018-04-12T22:44:13.340Z,9.70
2018-04-12T22:46:45.484Z,9.70
2018-04-12T22:49:17.181Z,9.80
2018-04-12T22:51:48.244Z,9.80
2018-04-12T22:54:19.136Z,9.80
2018-04-12T22:56:50.073Z,9.80
2018-04-12T22:59:21.387Z,9.80
2018-04-12T23:01:53.344Z,9.80
2018-04-12T23:04:25.131Z,9.80
2018-04-12T23:07:58.782Z,9.80
2018-04-12T23:10:30.397Z,9.80
2018-04-12T23:13:01.872Z,9.80
2018-04-12T23:15:32.911Z,9.80
2018-04-12T23:18:04.705Z,9.80
2018-04-12T23:20:36.155Z,9.80
2018-04-12T23:23:07.219Z,9.80
2018-04-12T23:25:38.987Z,9.90
2018-04-12T23:28:10.276Z,9.90
2018-04-12T23:30:41.283Z,9.90
2018-04-12T23:33:12.384Z,9.90
2018-04-12T23:35:43.877Z,9.90
2018-04-12T23:38:15.028Z,10.00
2018-04-12T23:40:46.169Z,9.90
2018-04-12T23:43:17.968Z,10.00
2018-04-12T23:45:49.029Z,10.00
2018-04-12T23:48:21.054Z,10.00
2018-04-12T23:50:52.565Z,10.00
2018-04-12T23:53:23.612Z,9.90
2018-04-12T23:55:54.680Z,9.90
2018-04-12T23:58:26.080Z,10.00
